EWG187 LIRF-EDDL
Flight info
| Callsign | EWG187 |
|---|---|
| Flight time | N/A |
| Altitude | 18000 |
| Route | SOVAN L995 AMTEL/N0445F360 DCT GIKEB DCT UNIMI DCT MOGTI DCT KPT L608 TEDGO/N0449F370 DCT HAREM DCT LOHRE/N0451F360 Z850 ARPEG/N0408F240 Z850 ADEMI T854 DOMUX DOMUX1A |
| Aircraft | A320/M-SDE3FGHIRWY/LB1 |
Departure
| Time | 2026-05-06 11:10 |
|---|---|
| Airport | Rome–Fiumicino Leonardo da Vinci International Airport (LIRF) |
Arrival
| Time | N/A |
|---|---|
| Airport | Düsseldorf Airport (EDDL) |
| Time | Latitude | Longitude | Altitude | Speed | Heading |
|---|---|---|---|---|---|
| 2026-05-06 09:51 | 41.79699 | 12.24616 | 16 ft | 0 kts | 70° |
| 2026-05-06 10:59 | 41.79699 | 12.24614 | 14 ft | 2 kts | 70° |
| 2026-05-06 10:59 | 41.79691 | 12.24585 | 14 ft | 2 kts | 69° |
| 2026-05-06 11:00 | 41.79682 | 12.24558 | 17 ft | 4 kts | 54° |
| 2026-05-06 11:00 | 41.79663 | 12.24533 | 14 ft | 4 kts | 25° |
| 2026-05-06 11:00 | 41.79638 | 12.24526 | 14 ft | 4 kts | 345° |
| 2026-05-06 11:00 | 41.79633 | 12.24527 | 14 ft | 0 kts | 339° |
| 2026-05-06 11:02 | 41.79647 | 12.24520 | 14 ft | 8 kts | 339° |
| 2026-05-06 11:02 | 41.79728 | 12.24480 | 14 ft | 13 kts | 340° |
| 2026-05-06 11:03 | 41.79803 | 12.24443 | 16 ft | 11 kts | 340° |
| 2026-05-06 11:03 | 41.79880 | 12.24422 | 14 ft | 13 kts | 17° |
| 2026-05-06 11:03 | 41.79929 | 12.24535 | 15 ft | 15 kts | 70° |
| 2026-05-06 11:03 | 41.79962 | 12.24659 | 15 ft | 13 kts | 70° |
| 2026-05-06 11:04 | 41.79992 | 12.24759 | 18 ft | 12 kts | 57° |
| 2026-05-06 11:04 | 41.80079 | 12.24803 | 16 ft | 15 kts | 32° |
| 2026-05-06 11:04 | 41.80109 | 12.24940 | 19 ft | 16 kts | 89° |
| 2026-05-06 11:04 | 41.80096 | 12.25103 | 19 ft | 19 kts | 98° |
| 2026-05-06 11:05 | 41.80124 | 12.25285 | 19 ft | 23 kts | 67° |
| 2026-05-06 11:05 | 41.80178 | 12.25490 | 21 ft | 24 kts | 71° |
| 2026-05-06 11:05 | 41.80241 | 12.25717 | 16 ft | 27 kts | 68° |
| 2026-05-06 11:05 | 41.80305 | 12.25955 | 16 ft | 28 kts | 71° |
| 2026-05-06 11:06 | 41.80343 | 12.26097 | 14 ft | 0 kts | 69° |
| 2026-05-06 11:06 | 41.80346 | 12.26109 | 16 ft | 5 kts | 69° |
| 2026-05-06 11:07 | 41.80369 | 12.26189 | 15 ft | 13 kts | 69° |
| 2026-05-06 11:07 | 41.80407 | 12.26325 | 16 ft | 16 kts | 69° |
| 2026-05-06 11:07 | 41.80449 | 12.26474 | 16 ft | 19 kts | 71° |
| 2026-05-06 11:07 | 41.80503 | 12.26670 | 17 ft | 24 kts | 69° |
| 2026-05-06 11:08 | 41.80561 | 12.26883 | 17 ft | 25 kts | 71° |
| 2026-05-06 11:08 | 41.80665 | 12.27048 | 13 ft | 25 kts | 13° |
| 2026-05-06 11:08 | 41.80831 | 12.27027 | 11 ft | 18 kts | 340° |
| 2026-05-06 11:08 | 41.80874 | 12.27006 | 10 ft | 3 kts | 340° |
| 2026-05-06 11:09 | 41.80894 | 12.26996 | 11 ft | 4 kts | 340° |
| 2026-05-06 11:09 | 41.80950 | 12.26963 | 11 ft | 11 kts | 323° |
| 2026-05-06 11:09 | 41.80955 | 12.26915 | 11 ft | 0 kts | 250° |
| 2026-05-06 11:09 | 41.80950 | 12.26896 | 12 ft | 18 kts | 250° |
| 2026-05-06 11:10 | 41.80876 | 12.26637 | 14 ft | 70 kts | 250° |
| 2026-05-06 11:10 | 41.80627 | 12.25758 | 17 ft | 130 kts | 250° |
| 2026-05-06 11:10 | 41.80254 | 12.24406 | 39 ft | 174 kts | 242° |
| 2026-05-06 11:10 | 41.79847 | 12.22935 | 724 ft | 165 kts | 243° |
| 2026-05-06 11:11 | 41.79293 | 12.20942 | 1413 ft | 182 kts | 244° |
| 2026-05-06 11:11 | 41.79156 | 12.19758 | 1644 ft | 203 kts | 271° |
| 2026-05-06 11:11 | 41.79757 | 12.17975 | 2208 ft | 219 kts | 304° |
| 2026-05-06 11:11 | 41.80715 | 12.16404 | 2955 ft | 216 kts | 303° |
| 2026-05-06 11:12 | 41.81653 | 12.14845 | 3680 ft | 214 kts | 303° |
| 2026-05-06 11:12 | 41.82580 | 12.13291 | 4355 ft | 214 kts | 304° |
| 2026-05-06 11:12 | 41.83504 | 12.11738 | 5038 ft | 213 kts | 306° |
| 2026-05-06 11:12 | 41.84647 | 12.10443 | 5649 ft | 219 kts | 325° |
| 2026-05-06 11:13 | 41.86131 | 12.09657 | 5980 ft | 244 kts | 339° |
| 2026-05-06 11:13 | 41.87845 | 12.09014 | 6311 ft | 267 kts | 340° |
| 2026-05-06 11:13 | 41.89673 | 12.08337 | 6923 ft | 277 kts | 340° |
| 2026-05-06 11:13 | 41.91550 | 12.07648 | 7693 ft | 281 kts | 340° |
| 2026-05-06 11:14 | 41.93447 | 12.06953 | 8498 ft | 284 kts | 340° |
| 2026-05-06 11:14 | 41.95366 | 12.06260 | 9299 ft | 289 kts | 343° |
| 2026-05-06 11:14 | 41.97394 | 12.05944 | 10064 ft | 296 kts | 351° |
| 2026-05-06 11:14 | 41.99512 | 12.05737 | 10382 ft | 317 kts | 351° |
| 2026-05-06 11:15 | 42.01792 | 12.05509 | 10555 ft | 340 kts | 352° |
| 2026-05-06 11:15 | 42.04213 | 12.05270 | 10889 ft | 356 kts | 352° |
| 2026-05-06 11:15 | 42.06709 | 12.05028 | 11497 ft | 362 kts | 352° |
| 2026-05-06 11:15 | 42.09232 | 12.04787 | 12163 ft | 365 kts | 352° |
| 2026-05-06 11:16 | 42.11784 | 12.04542 | 12698 ft | 374 kts | 352° |
| 2026-05-06 11:16 | 42.14448 | 12.04277 | 12828 ft | 393 kts | 352° |
| 2026-05-06 11:16 | 42.17238 | 12.03995 | 12968 ft | 411 kts | 352° |
| 2026-05-06 11:16 | 42.20096 | 12.03487 | 13365 ft | 417 kts | 347° |
| 2026-05-06 11:17 | 42.22976 | 12.02839 | 13902 ft | 421 kts | 347° |
| 2026-05-06 11:17 | 42.25873 | 12.02199 | 14395 ft | 425 kts | 347° |
| 2026-05-06 11:17 | 42.28803 | 12.01553 | 14879 ft | 428 kts | 347° |
| 2026-05-06 11:17 | 42.31750 | 12.00901 | 15352 ft | 431 kts | 347° |
| 2026-05-06 11:18 | 42.34719 | 12.00240 | 15810 ft | 434 kts | 347° |
| 2026-05-06 11:18 | 42.37703 | 11.99567 | 16270 ft | 437 kts | 347° |
| 2026-05-06 11:18 | 42.40716 | 11.98883 | 16714 ft | 440 kts | 347° |
| 2026-05-06 11:18 | 42.43748 | 11.98197 | 17144 ft | 443 kts | 347° |
| 2026-05-06 11:19 | 42.46791 | 11.97510 | 17557 ft | 446 kts | 347° |
| 2026-05-06 11:19 | 42.49865 | 11.96816 | 17965 ft | 449 kts | 347° |
| 2026-05-06 11:19 | 42.52956 | 11.96116 | 18350 ft | 451 kts | 347° |
| 2026-05-06 11:19 | 42.56058 | 11.95413 | 18688 ft | 454 kts | 347° |
| 2026-05-06 11:20 | 42.59183 | 11.94704 | 19017 ft | 456 kts | 347° |
| 2026-05-06 11:20 | 42.62319 | 11.93991 | 19343 ft | 458 kts | 347° |
| 2026-05-06 11:20 | 42.65469 | 11.93275 | 19667 ft | 460 kts | 346° |
| 2026-05-06 11:20 | 42.68593 | 11.92560 | 19999 ft | 462 kts | 346° |
| 2026-05-06 11:21 | 42.71805 | 11.91826 | 20306 ft | 464 kts | 346° |
| 2026-05-06 11:21 | 42.75003 | 11.91097 | 20607 ft | 466 kts | 346° |
| 2026-05-06 11:21 | 42.78201 | 11.90371 | 20889 ft | 468 kts | 346° |
| 2026-05-06 11:21 | 42.81366 | 11.89580 | 21160 ft | 468 kts | 342° |
| 2026-05-06 11:22 | 42.84495 | 11.88229 | 21427 ft | 465 kts | 334° |
| 2026-05-06 11:22 | 42.87395 | 11.86321 | 21697 ft | 462 kts | 327° |
| 2026-05-06 11:22 | 42.90231 | 11.84230 | 21957 ft | 464 kts | 327° |
| 2026-05-06 11:22 | 42.93079 | 11.82143 | 22290 ft | 464 kts | 327° |
| 2026-05-06 11:23 | 42.95927 | 11.80063 | 22714 ft | 463 kts | 327° |
| 2026-05-06 11:23 | 42.98760 | 11.77995 | 23133 ft | 461 kts | 327° |
| 2026-05-06 11:23 | 43.01554 | 11.75953 | 23534 ft | 461 kts | 327° |
| 2026-05-06 11:23 | 43.04409 | 11.73859 | 23885 ft | 460 kts | 327° |
| 2026-05-06 11:24 | 43.07227 | 11.71787 | 24236 ft | 459 kts | 327° |
| 2026-05-06 11:24 | 43.10037 | 11.69718 | 24584 ft | 458 kts | 327° |
| 2026-05-06 11:24 | 43.12803 | 11.67679 | 24929 ft | 457 kts | 327° |
| 2026-05-06 11:24 | 43.15636 | 11.65591 | 25294 ft | 456 kts | 327° |
| 2026-05-06 11:25 | 43.18396 | 11.63570 | 25658 ft | 456 kts | 329° |
| 2026-05-06 11:25 | 43.21407 | 11.61931 | 26037 ft | 462 kts | 339° |
| 2026-05-06 11:25 | 43.24528 | 11.61044 | 26403 ft | 468 kts | 349° |
| 2026-05-06 11:25 | 43.27822 | 11.60864 | 26795 ft | 471 kts | 356° |
| 2026-05-06 11:26 | 43.31101 | 11.60889 | 27179 ft | 470 kts | 356° |
| 2026-05-06 11:26 | 43.34373 | 11.60911 | 27563 ft | 469 kts | 355° |
| 2026-05-06 11:26 | 43.37640 | 11.60929 | 27959 ft | 468 kts | 355° |
| 2026-05-06 11:26 | 43.40893 | 11.60943 | 28368 ft | 467 kts | 355° |
| 2026-05-06 11:27 | 43.44135 | 11.60953 | 28775 ft | 466 kts | 355° |
| 2026-05-06 11:27 | 43.47367 | 11.60962 | 29179 ft | 465 kts | 355° |
| 2026-05-06 11:27 | 43.50606 | 11.60974 | 29599 ft | 463 kts | 355° |
| 2026-05-06 11:27 | 43.53826 | 11.60989 | 30025 ft | 461 kts | 355° |
| 2026-05-06 11:28 | 43.57035 | 11.61004 | 30391 ft | 460 kts | 355° |
| 2026-05-06 11:28 | 43.60225 | 11.61017 | 30747 ft | 458 kts | 355° |
| 2026-05-06 11:28 | 43.63408 | 11.61029 | 31126 ft | 457 kts | 355° |
| 2026-05-06 11:28 | 43.66580 | 11.61045 | 31501 ft | 455 kts | 355° |
| 2026-05-06 11:29 | 43.69743 | 11.61064 | 31882 ft | 454 kts | 355° |
| 2026-05-06 11:29 | 43.72893 | 11.61078 | 32278 ft | 451 kts | 355° |
| 2026-05-06 11:29 | 43.76021 | 11.61086 | 32655 ft | 449 kts | 355° |
| 2026-05-06 11:29 | 43.79137 | 11.61096 | 33060 ft | 447 kts | 355° |
| 2026-05-06 11:30 | 43.82242 | 11.61110 | 33463 ft | 445 kts | 355° |
| 2026-05-06 11:30 | 43.85328 | 11.61124 | 33874 ft | 442 kts | 354° |
| 2026-05-06 11:30 | 43.88388 | 11.61138 | 34264 ft | 439 kts | 354° |
| 2026-05-06 11:30 | 43.91421 | 11.61150 | 34699 ft | 433 kts | 354° |
| 2026-05-06 11:31 | 43.94419 | 11.61160 | 35141 ft | 427 kts | 354° |
| 2026-05-06 11:31 | 43.97374 | 11.61173 | 35585 ft | 421 kts | 354° |
| 2026-05-06 11:31 | 44.00287 | 11.61187 | 35888 ft | 419 kts | 354° |
| 2026-05-06 11:31 | 44.03215 | 11.61199 | 36052 ft | 420 kts | 354° |
| 2026-05-06 11:32 | 44.06145 | 11.61209 | 36203 ft | 422 kts | 354° |
| 2026-05-06 11:32 | 44.09075 | 11.61215 | 36359 ft | 423 kts | 354° |
| 2026-05-06 11:32 | 44.12024 | 11.61222 | 36513 ft | 424 kts | 354° |
| 2026-05-06 11:32 | 44.14978 | 11.61229 | 36645 ft | 425 kts | 355° |
| 2026-05-06 11:33 | 44.17949 | 11.61238 | 36775 ft | 427 kts | 355° |
| 2026-05-06 11:33 | 44.20915 | 11.61251 | 36923 ft | 428 kts | 355° |
| 2026-05-06 11:33 | 44.23904 | 11.61263 | 36949 ft | 432 kts | 355° |
| 2026-05-06 11:34 | 44.29981 | 11.61288 | 36938 ft | 440 kts | 355° |
| 2026-05-06 11:34 | 44.36166 | 11.61312 | 36925 ft | 449 kts | 355° |
| 2026-05-06 11:35 | 44.42459 | 11.61335 | 36916 ft | 456 kts | 355° |
| 2026-05-06 11:35 | 44.48855 | 11.61362 | 36914 ft | 463 kts | 355° |
| 2026-05-06 11:36 | 44.55350 | 11.61390 | 36913 ft | 468 kts | 355° |
| 2026-05-06 11:36 | 44.61870 | 11.61423 | 36916 ft | 469 kts | 355° |
| 2026-05-06 11:37 | 44.68384 | 11.61447 | 36919 ft | 470 kts | 355° |
| 2026-05-06 11:37 | 44.74942 | 11.61474 | 36928 ft | 471 kts | 355° |
| 2026-05-06 11:38 | 44.81488 | 11.61509 | 37084 ft | 469 kts | 355° |
| 2026-05-06 11:38 | 44.84743 | 11.61529 | 37355 ft | 467 kts | 355° |
| 2026-05-06 11:38 | 44.88001 | 11.61545 | 37408 ft | 469 kts | 355° |
| 2026-05-06 11:38 | 44.91246 | 11.61558 | 37690 ft | 465 kts | 355° |
| 2026-05-06 11:39 | 44.94477 | 11.61569 | 37889 ft | 464 kts | 355° |
| 2026-05-06 11:39 | 45.00952 | 11.61585 | 37924 ft | 468 kts | 355° |
| 2026-05-06 11:40 | 45.07503 | 11.61600 | 37939 ft | 471 kts | 355° |
| 2026-05-06 11:40 | 45.14053 | 11.61631 | 37933 ft | 471 kts | 355° |
| 2026-05-06 11:41 | 45.20616 | 11.61671 | 37988 ft | 473 kts | 355° |
| 2026-05-06 11:41 | 45.27253 | 11.61696 | 37933 ft | 478 kts | 355° |
| 2026-05-06 11:42 | 45.33910 | 11.61724 | 37929 ft | 479 kts | 355° |
| 2026-05-06 11:42 | 45.40584 | 11.61754 | 37928 ft | 480 kts | 355° |
| 2026-05-06 11:43 | 45.47277 | 11.61777 | 37934 ft | 481 kts | 355° |
| 2026-05-06 11:43 | 45.53971 | 11.61800 | 37936 ft | 481 kts | 355° |
| 2026-05-06 11:44 | 45.64027 | 11.61838 | 37945 ft | 482 kts | 355° |
| 2026-05-06 11:44 | 45.70739 | 11.61864 | 37934 ft | 482 kts | 355° |
| 2026-05-06 11:45 | 45.77453 | 11.61906 | 37936 ft | 482 kts | 355° |
| 2026-05-06 11:45 | 45.84164 | 11.61954 | 37938 ft | 482 kts | 355° |
| 2026-05-06 11:46 | 45.90875 | 11.61977 | 37932 ft | 482 kts | 355° |
| 2026-05-06 11:46 | 45.97578 | 11.61993 | 37932 ft | 482 kts | 355° |
| 2026-05-06 11:47 | 46.04281 | 11.62016 | 37936 ft | 482 kts | 355° |
| 2026-05-06 11:47 | 46.10982 | 11.62050 | 37936 ft | 481 kts | 355° |
| 2026-05-06 11:48 | 46.17573 | 11.61213 | 37923 ft | 469 kts | 340° |
| 2026-05-06 11:48 | 46.22593 | 11.58562 | 37928 ft | 457 kts | 326° |
| 2026-05-06 11:49 | 46.28120 | 11.54085 | 37921 ft | 455 kts | 324° |
| 2026-05-06 11:49 | 46.33629 | 11.49622 | 38020 ft | 452 kts | 325° |
| 2026-05-06 11:50 | 46.37284 | 11.46664 | 38400 ft | 447 kts | 325° |
| 2026-05-06 11:50 | 46.39075 | 11.45212 | 38575 ft | 444 kts | 326° |
| 2026-05-06 11:50 | 46.41750 | 11.43035 | 38789 ft | 440 kts | 325° |
| 2026-05-06 11:50 | 46.44416 | 11.40858 | 38873 ft | 440 kts | 325° |
| 2026-05-06 11:51 | 46.49755 | 11.36485 | 38896 ft | 442 kts | 325° |
| 2026-05-06 11:51 | 46.55132 | 11.32084 | 38895 ft | 446 kts | 325° |
| 2026-05-06 11:52 | 46.60547 | 11.27637 | 39097 ft | 444 kts | 325° |
| 2026-05-06 11:52 | 46.63226 | 11.25433 | 39321 ft | 440 kts | 325° |
| 2026-05-06 11:52 | 46.65884 | 11.23247 | 39395 ft | 440 kts | 325° |
| 2026-05-06 11:53 | 46.71233 | 11.18831 | 39482 ft | 442 kts | 325° |
| 2026-05-06 11:53 | 46.76594 | 11.14389 | 39552 ft | 444 kts | 326° |
| 2026-05-06 11:54 | 46.81978 | 11.09927 | 39625 ft | 446 kts | 326° |
| 2026-05-06 11:54 | 46.87458 | 11.05620 | 39646 ft | 451 kts | 332° |
| 2026-05-06 11:55 | 46.93189 | 11.01882 | 39788 ft | 449 kts | 331° |
| 2026-05-06 11:55 | 46.98896 | 10.98141 | 39830 ft | 451 kts | 331° |
| 2026-05-06 11:56 | 47.04642 | 10.94365 | 39817 ft | 454 kts | 332° |
| 2026-05-06 11:56 | 47.10419 | 10.90571 | 39790 ft | 453 kts | 331° |
| 2026-05-06 11:57 | 47.16150 | 10.86795 | 39791 ft | 451 kts | 331° |
| 2026-05-06 11:57 | 47.21874 | 10.83014 | 39791 ft | 448 kts | 331° |
| 2026-05-06 11:58 | 47.27580 | 10.79224 | 39776 ft | 451 kts | 331° |
| 2026-05-06 11:58 | 47.33328 | 10.75404 | 39777 ft | 455 kts | 331° |
| 2026-05-06 11:59 | 47.39075 | 10.71408 | 39777 ft | 454 kts | 324° |
| 2026-05-06 11:59 | 47.44279 | 10.66193 | 39783 ft | 454 kts | 320° |
| 2026-05-06 12:00 | 47.49486 | 10.60862 | 39789 ft | 457 kts | 321° |
| 2026-05-06 12:00 | 47.54736 | 10.55477 | 39790 ft | 460 kts | 320° |
| 2026-05-06 12:01 | 47.60001 | 10.50058 | 39798 ft | 462 kts | 320° |
| 2026-05-06 12:01 | 47.65288 | 10.44601 | 39804 ft | 464 kts | 320° |
| 2026-05-06 12:02 | 47.70602 | 10.39109 | 39806 ft | 465 kts | 320° |
| 2026-05-06 12:02 | 47.75889 | 10.33563 | 39813 ft | 465 kts | 318° |
| 2026-05-06 12:03 | 47.80939 | 10.27566 | 39822 ft | 463 kts | 315° |
| 2026-05-06 12:03 | 47.85852 | 10.21358 | 39825 ft | 464 kts | 315° |
| 2026-05-06 12:04 | 47.90795 | 10.15165 | 39828 ft | 464 kts | 316° |
| 2026-05-06 12:04 | 47.95785 | 10.09044 | 39825 ft | 465 kts | 316° |
| 2026-05-06 12:05 | 48.00804 | 10.02930 | 39823 ft | 465 kts | 316° |
| 2026-05-06 12:05 | 48.05798 | 9.96796 | 39804 ft | 465 kts | 316° |
| 2026-05-06 12:06 | 48.10795 | 9.90616 | 39801 ft | 466 kts | 316° |
| 2026-05-06 12:06 | 48.15788 | 9.84422 | 39798 ft | 466 kts | 316° |
| 2026-05-06 12:07 | 48.20773 | 9.78226 | 39804 ft | 466 kts | 316° |
| 2026-05-06 12:07 | 48.25771 | 9.72011 | 39798 ft | 466 kts | 316° |
| 2026-05-06 12:08 | 48.30760 | 9.65786 | 39803 ft | 467 kts | 316° |
| 2026-05-06 12:08 | 48.35741 | 9.59532 | 39809 ft | 467 kts | 315° |
| 2026-05-06 12:09 | 48.40658 | 9.53242 | 39815 ft | 467 kts | 315° |
| 2026-05-06 12:09 | 48.45633 | 9.46837 | 39816 ft | 467 kts | 315° |
| 2026-05-06 12:10 | 48.50537 | 9.40514 | 39814 ft | 467 kts | 315° |
| 2026-05-06 12:10 | 48.55479 | 9.34145 | 39811 ft | 467 kts | 315° |
| 2026-05-06 12:11 | 48.60997 | 9.28877 | 39798 ft | 476 kts | 335° |
| 2026-05-06 12:11 | 48.64181 | 9.27446 | 39796 ft | 481 kts | 347° |
| 2026-05-06 12:11 | 48.67525 | 9.26936 | 39792 ft | 485 kts | 358° |
| 2026-05-06 12:12 | 48.74263 | 9.27812 | 39793 ft | 487 kts | 3° |
| 2026-05-06 12:12 | 48.81014 | 9.28849 | 39794 ft | 487 kts | 3° |
| 2026-05-06 12:13 | 48.87759 | 9.29885 | 39802 ft | 487 kts | 3° |
| 2026-05-06 12:13 | 48.94500 | 9.30921 | 39815 ft | 486 kts | 3° |
| 2026-05-06 12:14 | 49.01236 | 9.31954 | 39825 ft | 486 kts | 3° |
| 2026-05-06 12:14 | 49.07957 | 9.33001 | 39833 ft | 485 kts | 3° |
| 2026-05-06 12:15 | 49.14652 | 9.34040 | 39831 ft | 484 kts | 4° |
| 2026-05-06 12:15 | 49.21341 | 9.35079 | 39826 ft | 483 kts | 4° |
| 2026-05-06 12:16 | 49.28021 | 9.36125 | 39826 ft | 482 kts | 4° |
| 2026-05-06 12:16 | 49.34685 | 9.37169 | 39826 ft | 481 kts | 4° |
| 2026-05-06 12:17 | 49.41341 | 9.38210 | 39820 ft | 480 kts | 4° |
| 2026-05-06 12:17 | 49.48030 | 9.39263 | 39814 ft | 480 kts | 4° |
| 2026-05-06 12:18 | 49.54631 | 9.40296 | 39810 ft | 480 kts | 4° |
| 2026-05-06 12:18 | 49.61316 | 9.41352 | 39583 ft | 479 kts | 4° |
| 2026-05-06 12:19 | 49.64629 | 9.41880 | 39313 ft | 478 kts | 4° |
| 2026-05-06 12:19 | 49.67967 | 9.42408 | 38306 ft | 488 kts | 4° |
| 2026-05-06 12:19 | 49.71336 | 9.42939 | 37696 ft | 483 kts | 4° |
| 2026-05-06 12:19 | 49.74642 | 9.43464 | 37349 ft | 474 kts | 4° |
| 2026-05-06 12:20 | 49.77914 | 9.43991 | 36825 ft | 470 kts | 4° |
| 2026-05-06 12:20 | 49.81144 | 9.44517 | 36438 ft | 464 kts | 4° |
| 2026-05-06 12:20 | 49.84336 | 9.45035 | 36004 ft | 459 kts | 4° |
| 2026-05-06 12:20 | 49.87496 | 9.45546 | 35574 ft | 454 kts | 4° |
| 2026-05-06 12:21 | 49.90636 | 9.46052 | 35159 ft | 454 kts | 4° |
| 2026-05-06 12:21 | 49.93835 | 9.46564 | 34755 ft | 471 kts | 4° |
| 2026-05-06 12:21 | 49.97156 | 9.47093 | 34346 ft | 488 kts | 4° |
| 2026-05-06 12:21 | 50.00579 | 9.47618 | 33948 ft | 498 kts | 0° |
| 2026-05-06 12:22 | 50.04044 | 9.47418 | 33499 ft | 497 kts | 347° |
| 2026-05-06 12:22 | 50.07368 | 9.46097 | 33036 ft | 492 kts | 334° |
| 2026-05-06 12:22 | 50.10370 | 9.43778 | 32585 ft | 485 kts | 322° |
| 2026-05-06 12:22 | 50.13074 | 9.40594 | 32130 ft | 482 kts | 316° |
| 2026-05-06 12:23 | 50.15682 | 9.37286 | 31688 ft | 481 kts | 316° |
| 2026-05-06 12:23 | 50.18270 | 9.34011 | 31253 ft | 478 kts | 316° |
| 2026-05-06 12:23 | 50.20810 | 9.30802 | 30831 ft | 474 kts | 316° |
| 2026-05-06 12:23 | 50.23356 | 9.27578 | 30408 ft | 469 kts | 316° |
| 2026-05-06 12:24 | 50.25914 | 9.24334 | 29984 ft | 465 kts | 316° |
| 2026-05-06 12:24 | 50.28371 | 9.21208 | 29528 ft | 460 kts | 316° |
| 2026-05-06 12:24 | 50.30837 | 9.18059 | 29044 ft | 455 kts | 316° |
| 2026-05-06 12:24 | 50.33304 | 9.14900 | 28557 ft | 451 kts | 316° |
| 2026-05-06 12:25 | 50.35690 | 9.11842 | 28097 ft | 446 kts | 316° |
| 2026-05-06 12:25 | 50.38114 | 9.08737 | 27627 ft | 442 kts | 316° |
| 2026-05-06 12:25 | 50.40485 | 9.05698 | 27172 ft | 439 kts | 316° |
| 2026-05-06 12:25 | 50.42842 | 9.02679 | 26716 ft | 435 kts | 316° |
| 2026-05-06 12:26 | 50.45145 | 8.99723 | 26292 ft | 432 kts | 316° |
| 2026-05-06 12:26 | 50.47459 | 8.96750 | 25867 ft | 429 kts | 316° |
| 2026-05-06 12:26 | 50.49761 | 8.93788 | 25442 ft | 426 kts | 316° |
| 2026-05-06 12:26 | 50.52071 | 8.90812 | 25010 ft | 423 kts | 316° |
| 2026-05-06 12:27 | 50.54350 | 8.87911 | 24591 ft | 421 kts | 317° |
| 2026-05-06 12:27 | 50.56655 | 8.85089 | 24184 ft | 419 kts | 318° |
| 2026-05-06 12:27 | 50.58972 | 8.82327 | 23784 ft | 417 kts | 319° |
| 2026-05-06 12:27 | 50.60515 | 8.80508 | 23519 ft | 416 kts | 319° |
| 2026-05-06 12:28 | 50.62828 | 8.77786 | 23083 ft | 413 kts | 319° |
| 2026-05-06 12:28 | 50.65120 | 8.75073 | 22616 ft | 411 kts | 319° |
| 2026-05-06 12:28 | 50.67393 | 8.72358 | 22147 ft | 408 kts | 319° |
| 2026-05-06 12:28 | 50.69642 | 8.69653 | 21702 ft | 406 kts | 319° |
| 2026-05-06 12:29 | 50.71875 | 8.66952 | 21256 ft | 403 kts | 319° |
| 2026-05-06 12:29 | 50.74092 | 8.64264 | 20823 ft | 401 kts | 319° |
| 2026-05-06 12:29 | 50.76301 | 8.61585 | 20386 ft | 399 kts | 319° |
| 2026-05-06 12:29 | 50.78496 | 8.58925 | 19958 ft | 396 kts | 319° |
| 2026-05-06 12:30 | 50.80677 | 8.56274 | 19540 ft | 394 kts | 319° |
| 2026-05-06 12:30 | 50.82843 | 8.53640 | 19129 ft | 392 kts | 319° |
| 2026-05-06 12:30 | 50.85007 | 8.51008 | 18943 ft | 391 kts | 319° |
| 2026-05-06 12:30 | 50.87159 | 8.48388 | 18985 ft | 391 kts | 319° |
| 2026-05-06 12:31 | 50.89312 | 8.45766 | 18981 ft | 391 kts | 319° |
| 2026-05-06 12:31 | 50.91467 | 8.43140 | 18981 ft | 391 kts | 319° |
| 2026-05-06 12:31 | 50.93620 | 8.40511 | 18982 ft | 391 kts | 319° |
| 2026-05-06 12:31 | 50.95771 | 8.37872 | 18983 ft | 391 kts | 319° |
| 2026-05-06 12:32 | 50.97915 | 8.35228 | 18974 ft | 390 kts | 319° |
| 2026-05-06 12:32 | 51.00063 | 8.32580 | 18977 ft | 390 kts | 319° |
| 2026-05-06 12:32 | 51.02278 | 8.30081 | 18982 ft | 392 kts | 326° |
| 2026-05-06 12:32 | 51.04665 | 8.27959 | 18974 ft | 393 kts | 328° |
| 2026-05-06 12:33 | 51.07053 | 8.25849 | 18995 ft | 393 kts | 328° |
| 2026-05-06 12:33 | 51.09440 | 8.23731 | 18990 ft | 393 kts | 328° |
| 2026-05-06 12:33 | 51.11830 | 8.21605 | 18992 ft | 393 kts | 328° |
| 2026-05-06 12:33 | 51.14208 | 8.19490 | 18993 ft | 392 kts | 328° |
| 2026-05-06 12:34 | 51.16595 | 8.17364 | 18993 ft | 392 kts | 328° |